Ouzinkie, Alaska
Current Conditions -  °F | °C
As of 3:53 PM on Friday 24 Oct 2014 (Local Time) from PADQ Reporting Station
Scattered Clouds Scattered Clouds  
Wind Chill: 42°   Ceiling: Unl
Heat Index: 47°   Visibility: 10mi
Dew Point: 36°   Wind: 12mph
Humidity: 66%   Direction: 310°NW
Pressure: 29.82"   Gusts: NA
Location:  57.92°N, 152.5°W
Report Text: PADQ 242353Z 31010KT 10SM FEW035 SCT060 SCT090 08/02 A2982 RMK AO2 SLP097 T00830022 10100 20028 53002
Loading
Personal Weather Stations






























Interactive Weather Map
Tropical Storm Tracking
New forecast layout! Learn more

10-Day Weather Forecast

Advertisements
Track Severe Weather on mobile